createdAt,value
2018-08-24T00:02:53.399Z,19.85
2018-08-24T00:05:24.118Z,19.57
2018-08-24T00:07:54.640Z,16.50
2018-08-24T00:10:25.434Z,19.27
2018-08-24T00:12:55.461Z,20.82
2018-08-24T00:15:25.701Z,20.48
2018-08-24T00:17:55.765Z,20.10
2018-08-24T00:20:25.958Z,19.32
2018-08-24T00:22:56.564Z,19.12
2018-08-24T00:25:27.285Z,17.05
2018-08-24T00:27:57.985Z,18.12
2018-08-24T00:30:28.373Z,15.70
2018-08-24T00:32:58.657Z,16.35
2018-08-24T00:35:29.964Z,14.05
2018-08-24T00:38:00.526Z,18.75
2018-08-24T00:40:31.382Z,18.73
2018-08-24T00:43:01.687Z,18.57
2018-08-24T00:45:35.141Z,18.95
2018-08-24T00:48:05.415Z,17.02
2018-08-24T00:50:36.759Z,16.73
2018-08-24T00:53:07.023Z,8.90
2018-08-24T00:55:39.570Z,17.82
2018-08-24T00:58:09.796Z,17.95
2018-08-24T01:00:45.932Z,16.67
2018-08-24T01:03:16.023Z,18.62
2018-08-24T01:05:49.224Z,15.20
2018-08-24T01:08:19.527Z,17.20
2018-08-24T01:10:53.163Z,16.15
2018-08-24T01:13:25.401Z,16.70
2018-08-24T01:16:01.586Z,21.17
2018-08-24T01:18:50.681Z,14.40
2018-08-24T01:21:22.006Z,18.45
2018-08-24T01:23:54.593Z,21.93
2018-08-24T01:26:28.522Z,20.90
2018-08-24T01:29:01.819Z,21.27
2018-08-24T01:31:33.031Z,18.15
2018-08-24T01:36:46.071Z,17.12
2018-08-24T01:39:16.757Z,19.40
2018-08-24T01:41:47.240Z,15.80
2018-08-24T01:44:19.695Z,14.13
2018-08-24T01:46:49.712Z,13.58
2018-08-24T01:49:22.332Z,12.82
2018-08-24T01:51:52.521Z,8.60
2018-08-24T01:54:22.636Z,8.55
2018-08-24T01:56:53.618Z,8.10
2018-08-24T01:59:23.902Z,7.28
2018-08-24T02:01:54.222Z,6.37
2018-08-24T02:04:24.649Z,5.25
2018-08-24T02:06:55.489Z,4.95
2018-08-24T02:09:26.127Z,4.20
2018-08-24T02:11:56.541Z,4.00
2018-08-24T02:14:32.006Z,2.40
2018-08-24T02:17:02.709Z,2.80
2018-08-24T02:19:37.855Z,2.80
2018-08-24T02:22:13.393Z,2.62
2018-08-24T02:24:43.989Z,2.50
2018-08-24T02:27:14.969Z,2.90
2018-08-24T02:29:44.990Z,2.42
2018-08-24T02:32:17.664Z,2.55
2018-08-24T02:34:47.678Z,1.90
2018-08-24T02:37:23.491Z,2.35
2018-08-24T02:39:55.333Z,1.92
2018-08-24T02:42:29.844Z,2.10
2018-08-24T02:45:08.307Z,2.30
2018-08-24T02:47:47.555Z,1.95
2018-08-24T02:50:30.949Z,2.20
2018-08-24T02:53:02.469Z,2.08
2018-08-24T02:55:34.252Z,2.50
2018-08-24T02:58:06.457Z,2.40
2018-08-24T03:00:38.674Z,2.10
2018-08-24T03:03:09.322Z,1.57
2018-08-24T03:05:40.831Z,1.70
2018-08-24T03:08:14.741Z,1.70
2018-08-24T03:10:46.077Z,1.40
2018-08-24T03:13:20.793Z,1.67
2018-08-24T03:15:50.964Z,1.90
2018-08-24T03:18:23.549Z,2.00
2018-08-24T03:20:56.413Z,2.02
2018-08-24T03:23:26.438Z,2.00
2018-08-24T03:25:59.277Z,1.70
2018-08-24T03:28:29.485Z,1.98
2018-08-24T03:31:02.169Z,2.00
2018-08-24T03:33:34.009Z,2.27
2018-08-24T03:36:04.943Z,2.35
2018-08-24T03:38:37.455Z,2.33
2018-08-24T03:41:10.795Z,2.20
2018-08-24T03:43:43.257Z,2.62
2018-08-24T03:46:15.447Z,2.90
2018-08-24T03:48:45.607Z,3.00
2018-08-24T03:51:19.262Z,3.05
2018-08-24T03:53:49.440Z,3.17
2018-08-24T03:56:23.729Z,3.33
2018-08-24T03:58:54.344Z,3.12
2018-08-24T04:01:26.869Z,3.67
2018-08-24T04:03:57.608Z,3.85
2018-08-24T04:06:29.363Z,3.62
2018-08-24T04:09:02.410Z,3.55
2018-08-24T04:11:35.028Z,3.52
2018-08-24T04:14:06.978Z,3.02
2018-08-24T04:16:50.600Z,3.30
2018-08-24T04:19:27.292Z,3.10
2018-08-24T04:22:00.045Z,3.22
2018-08-24T04:24:30.825Z,3.45
2018-08-24T04:27:03.874Z,3.60
2018-08-24T04:29:34.809Z,3.22
2018-08-24T04:32:06.281Z,3.67
2018-08-24T04:34:38.081Z,3.10
2018-08-24T04:37:08.273Z,3.62
2018-08-24T04:39:38.461Z,3.35
2018-08-24T04:42:11.132Z,4.60
2018-08-24T04:44:43.637Z,4.97
2018-08-24T04:47:15.880Z,5.10
2018-08-24T04:49:49.785Z,4.75
2018-08-24T04:52:23.626Z,4.78
2018-08-24T04:55:02.116Z,4.28
2018-08-24T04:57:45.439Z,4.03
2018-08-24T05:00:19.039Z,4.35
2018-08-24T05:02:53.670Z,4.17
2018-08-24T05:05:29.003Z,4.15
2018-08-24T05:07:59.723Z,4.75
2018-08-24T05:10:30.998Z,4.05
2018-08-24T05:13:01.635Z,4.45
2018-08-24T05:15:35.967Z,3.62
2018-08-24T05:18:06.259Z,2.90
2018-08-24T05:20:37.187Z,2.87
2018-08-24T05:23:12.340Z,3.42
2018-08-24T05:25:43.277Z,3.15
2018-08-24T05:28:22.715Z,3.67
2018-08-24T05:30:54.975Z,3.77
2018-08-24T05:33:33.095Z,3.83
2018-08-24T05:36:04.436Z,3.55
2018-08-24T05:38:35.014Z,3.70
2018-08-24T05:41:11.581Z,3.80
2018-08-24T05:43:48.807Z,4.05
2018-08-24T05:46:21.601Z,3.37
2018-08-24T05:48:53.640Z,2.75
2018-08-24T05:51:25.061Z,5.00
2018-08-24T05:53:59.181Z,3.33
2018-08-24T05:56:32.976Z,3.40
2018-08-24T05:59:07.892Z,4.30
2018-08-24T06:01:40.035Z,2.98
2018-08-24T06:04:10.264Z,3.35
2018-08-24T06:06:40.682Z,2.15
2018-08-24T06:09:16.643Z,2.58
2018-08-24T06:11:49.348Z,2.65
2018-08-24T06:14:23.186Z,3.00
2018-08-24T06:17:02.196Z,2.67
2018-08-24T06:19:35.156Z,2.20
2018-08-24T06:22:12.522Z,1.65
2018-08-24T06:24:44.514Z,2.72
2018-08-24T06:27:17.280Z,3.00
2018-08-24T06:29:48.270Z,3.30
2018-08-24T06:32:18.939Z,3.50
2018-08-24T06:34:49.278Z,2.98
2018-08-24T06:37:33.964Z,2.37
2018-08-24T06:42:59.456Z,2.98
2018-08-24T06:45:30.026Z,2.80
2018-08-24T06:48:00.391Z,3.30
2018-08-24T06:50:33.956Z,4.17
2018-08-24T06:53:06.780Z,3.55
2018-08-24T06:55:38.934Z,3.80
2018-08-24T06:58:10.425Z,3.40
2018-08-24T07:00:50.208Z,3.17
2018-08-24T07:03:23.514Z,3.00
2018-08-24T07:05:54.438Z,3.47
2018-08-24T07:08:30.976Z,3.40
2018-08-24T07:11:03.847Z,3.02
2018-08-24T07:13:38.778Z,2.12
2018-08-24T07:16:12.095Z,8.00
2018-08-24T07:18:43.564Z,3.20
2018-08-24T07:21:16.063Z,3.20
2018-08-24T07:23:48.200Z,3.98
2018-08-24T07:26:22.627Z,3.72
2018-08-24T07:28:55.784Z,3.90
2018-08-24T07:31:28.248Z,2.37
2018-08-24T07:34:01.138Z,3.10
2018-08-24T07:36:33.534Z,2.90
2018-08-24T07:39:06.163Z,2.50
2018-08-24T07:41:38.622Z,3.47
2018-08-24T07:44:13.749Z,4.50
2018-08-24T07:46:48.508Z,3.75
2018-08-24T07:49:20.515Z,4.08
2018-08-24T07:51:56.562Z,2.72
2018-08-24T07:54:28.240Z,3.42
2018-08-24T07:56:58.849Z,3.52
2018-08-24T08:01:55.874Z,3.85
2018-08-24T08:04:27.302Z,3.27
2018-08-24T08:06:58.836Z,4.75
2018-08-24T08:09:30.222Z,3.45
2018-08-24T08:12:04.218Z,4.35
2018-08-24T08:14:36.626Z,4.00
2018-08-24T08:17:07.469Z,2.47
2018-08-24T08:19:37.741Z,3.95
2018-08-24T08:22:12.691Z,3.85
2018-08-24T08:24:44.609Z,4.50
2018-08-24T08:27:15.473Z,4.25
2018-08-24T08:29:55.958Z,4.17
2018-08-24T08:32:27.312Z,5.00
2018-08-24T08:34:59.988Z,5.20
2018-08-24T08:37:30.476Z,3.40
2018-08-24T08:40:03.883Z,4.15
2018-08-24T08:42:37.286Z,2.85
2018-08-24T08:45:10.172Z,2.98
2018-08-24T08:47:42.977Z,4.72
2018-08-24T08:50:13.678Z,3.60
2018-08-24T08:52:44.555Z,3.50
2018-08-24T08:55:17.107Z,4.60
2018-08-24T08:57:49.901Z,3.25
2018-08-24T09:00:24.290Z,3.60
2018-08-24T09:03:24.437Z,2.87
2018-08-24T09:05:59.464Z,2.80
2018-08-24T09:08:38.782Z,3.40
2018-08-24T09:11:10.462Z,3.60
2018-08-24T09:16:27.133Z,3.22
2018-08-24T09:21:14.565Z,2.83
2018-08-24T09:23:59.039Z,2.37
2018-08-24T09:40:06.726Z,3.17
2018-08-24T09:42:42.016Z,3.87
2018-08-24T09:45:14.709Z,4.58
2018-08-24T09:47:51.102Z,2.83
2018-08-24T09:50:27.066Z,3.72
2018-08-24T09:53:06.663Z,3.72
2018-08-24T09:55:45.190Z,3.20
2018-08-24T09:58:22.382Z,3.67
2018-08-24T10:01:05.556Z,5.55
2018-08-24T10:03:43.503Z,4.72
2018-08-24T10:06:21.411Z,3.17
2018-08-24T10:08:52.835Z,4.10
2018-08-24T10:11:25.520Z,5.37
2018-08-24T10:14:01.230Z,4.87
2018-08-24T10:16:35.564Z,3.87
2018-08-24T10:22:00.915Z,5.45
2018-08-24T10:24:33.668Z,6.00
2018-08-24T10:27:05.736Z,6.28
2018-08-24T10:29:37.795Z,3.40
2018-08-24T10:32:07.865Z,4.35
2018-08-24T10:34:38.562Z,2.00
2018-08-24T10:37:09.277Z,0.93
2018-08-24T10:39:39.096Z,0.60
2018-08-24T10:42:09.359Z,0.85
2018-08-24T10:44:39.085Z,2.00
2018-08-24T10:47:09.470Z,1.80
2018-08-24T10:49:39.250Z,1.60
2018-08-24T10:52:10.376Z,1.70
2018-08-24T10:54:42.875Z,1.10
2018-08-24T10:57:15.607Z,2.10
2018-08-24T10:59:49.545Z,0.93
2018-08-24T11:02:21.060Z,1.50
2018-08-24T11:04:51.509Z,1.27
2018-08-24T11:07:21.687Z,2.17
2018-08-24T11:09:52.293Z,1.90
2018-08-24T11:12:23.598Z,1.82
2018-08-24T11:16:02.789Z,1.80
2018-08-24T11:21:14.922Z,0.88
2018-08-24T11:23:46.103Z,1.70
2018-08-24T11:26:17.205Z,1.12
2018-08-24T11:28:49.423Z,1.15
2018-08-24T11:31:20.311Z,3.62
2018-08-24T11:33:56.401Z,2.12
2018-08-24T11:36:27.136Z,1.72
2018-08-24T11:38:57.337Z,1.85
2018-08-24T11:41:29.994Z,2.10
2018-08-24T11:44:00.684Z,2.05
2018-08-24T11:46:31.073Z,1.35
2018-08-24T11:49:03.324Z,2.40
2018-08-24T11:54:17.064Z,2.33
2018-08-24T11:56:47.808Z,2.70
2018-08-24T11:59:20.209Z,2.08
2018-08-24T12:01:51.106Z,2.47
2018-08-24T12:04:22.001Z,2.05
2018-08-24T12:06:54.621Z,1.77
2018-08-24T12:09:25.790Z,2.27
2018-08-24T12:11:57.615Z,2.42
2018-08-24T12:14:28.065Z,2.80
2018-08-24T12:16:59.477Z,2.83
2018-08-24T12:19:30.172Z,1.20
2018-08-24T12:22:04.853Z,3.00
2018-08-24T12:24:37.258Z,1.40
2018-08-24T12:27:10.132Z,2.33
2018-08-24T12:29:41.390Z,3.33
2018-08-24T12:32:12.281Z,2.15
2018-08-24T12:34:50.571Z,2.47
2018-08-24T12:59:25.507Z,1.82
2018-08-24T13:02:04.475Z,1.27
2018-08-24T13:04:38.815Z,1.60
2018-08-24T13:07:27.390Z,1.20
2018-08-24T13:09:58.901Z,1.55
2018-08-24T13:12:32.026Z,1.42
2018-08-24T13:15:08.867Z,1.60
2018-08-24T13:20:36.937Z,1.60
2018-08-24T13:23:10.969Z,1.10
2018-08-24T13:25:47.066Z,2.27
2018-08-24T13:28:20.131Z,1.50
2018-08-24T13:30:53.746Z,1.00
2018-08-24T13:33:25.717Z,1.15
2018-08-24T13:35:56.220Z,1.17
2018-08-24T13:38:29.907Z,0.98
2018-08-24T13:41:00.720Z,1.30
2018-08-24T13:43:35.672Z,0.78
2018-08-24T13:46:06.758Z,1.42
2018-08-24T13:48:37.084Z,2.15
2018-08-24T13:51:10.620Z,1.25
2018-08-24T13:53:44.267Z,1.20
2018-08-24T13:56:16.565Z,1.40
2018-08-24T13:58:53.699Z,1.52
2018-08-24T14:01:25.431Z,1.70
2018-08-24T14:03:57.147Z,1.60
2018-08-24T14:06:29.614Z,1.70
2018-08-24T14:09:00.041Z,1.45
2018-08-24T14:11:31.152Z,1.65
2018-08-24T14:14:05.586Z,1.77
2018-08-24T14:16:35.872Z,1.27
2018-08-24T14:19:06.260Z,1.62
2018-08-24T14:21:36.883Z,1.20
2018-08-24T14:24:14.668Z,1.00
2018-08-24T14:26:50.255Z,1.10
2018-08-24T14:29:21.566Z,1.60
2018-08-24T14:32:14.865Z,1.30
2018-08-24T14:34:46.340Z,0.90
2018-08-24T14:37:16.510Z,1.45
2018-08-24T14:39:46.495Z,1.35
2018-08-24T14:42:17.419Z,1.90
2018-08-24T14:44:49.334Z,1.65
2018-08-24T14:47:20.478Z,1.90
2018-08-24T14:49:50.940Z,2.10
2018-08-24T14:52:50.960Z,1.40
2018-08-24T14:58:10.596Z,1.87
2018-08-24T15:00:40.866Z,1.67
2018-08-24T15:03:12.212Z,1.42
2018-08-24T15:05:42.457Z,1.10
2018-08-24T15:08:12.511Z,1.72
2018-08-24T15:10:43.474Z,1.25
2018-08-24T15:13:13.882Z,1.80
2018-08-24T15:15:44.460Z,2.33
2018-08-24T15:18:15.952Z,1.25
2018-08-24T15:20:46.070Z,1.47
2018-08-24T15:23:17.287Z,2.15
2018-08-24T15:25:47.852Z,1.90
2018-08-24T15:28:18.103Z,1.85
2018-08-24T15:30:48.606Z,2.02
2018-08-24T15:33:18.524Z,2.10
2018-08-24T15:35:48.590Z,2.67
2018-08-24T15:38:18.792Z,0.90
2018-08-24T15:40:57.938Z,1.55
2018-08-24T15:43:35.046Z,1.55
2018-08-24T15:46:08.193Z,1.60
2018-08-24T15:48:38.572Z,1.65
2018-08-24T15:51:09.308Z,1.20
2018-08-24T15:53:39.852Z,1.42
2018-08-24T15:56:10.284Z,1.55
2018-08-24T15:58:40.560Z,1.50
2018-08-24T16:01:11.327Z,1.67
2018-08-24T16:03:43.883Z,1.17
2018-08-24T16:06:18.914Z,1.35
2018-08-24T16:08:52.649Z,1.07
2018-08-24T16:11:23.152Z,1.32
2018-08-24T16:13:55.071Z,1.22
2018-08-24T16:16:40.018Z,0.85
2018-08-24T16:21:57.629Z,1.60
2018-08-24T16:24:39.526Z,2.00
2018-08-24T16:27:16.900Z,1.12
2018-08-24T16:29:56.167Z,1.90
2018-08-24T16:32:29.446Z,1.52
2018-08-24T16:35:01.793Z,1.10
2018-08-24T16:37:33.501Z,1.60
2018-08-24T16:40:11.571Z,1.80
2018-08-24T16:42:45.544Z,1.40
2018-08-24T16:45:20.883Z,1.27
2018-08-24T16:47:53.509Z,1.82
2018-08-24T16:50:25.362Z,1.50
2018-08-24T16:52:59.167Z,1.62
2018-08-24T16:55:29.897Z,1.12
2018-08-24T16:58:10.132Z,1.42
2018-08-24T17:00:42.982Z,2.20
2018-08-24T17:03:30.377Z,1.70
2018-08-24T17:06:10.035Z,1.20
2018-08-24T17:08:49.012Z,1.20
2018-08-24T17:11:19.926Z,1.75
2018-08-24T17:14:02.016Z,2.22
2018-08-24T17:16:45.488Z,1.20
2018-08-24T17:22:20.393Z,2.15
2018-08-24T17:25:06.960Z,1.60
2018-08-24T17:27:41.031Z,1.77
2018-08-24T17:30:13.125Z,1.92
2018-08-24T17:32:43.946Z,2.87
2018-08-24T17:35:15.528Z,2.52
2018-08-24T17:37:47.317Z,2.00
2018-08-24T17:40:18.826Z,1.05
2018-08-24T17:42:50.347Z,1.20
2018-08-24T17:45:24.185Z,2.05
2018-08-24T17:48:01.504Z,1.42
2018-08-24T17:50:38.586Z,1.72
2018-08-24T17:53:13.333Z,1.15
2018-08-24T17:55:47.500Z,2.15
2018-08-24T17:58:22.940Z,2.00
2018-08-24T18:00:54.768Z,1.87
2018-08-24T18:03:27.827Z,2.00
2018-08-24T18:06:03.926Z,2.20
2018-08-24T18:08:36.684Z,2.50
2018-08-24T18:11:14.099Z,2.42
2018-08-24T18:13:47.552Z,1.37
2018-08-24T18:16:18.944Z,2.50
2018-08-24T18:18:50.597Z,1.10
2018-08-24T18:21:22.047Z,1.67
2018-08-24T18:23:57.139Z,1.20
2018-08-24T18:26:28.901Z,1.65
2018-08-24T18:29:07.969Z,1.20
2018-08-24T18:31:39.072Z,1.80
2018-08-24T18:34:09.850Z,2.25
2018-08-24T18:36:40.878Z,2.05
2018-08-24T18:39:13.753Z,2.60
2018-08-24T18:41:44.141Z,2.33
2018-08-24T18:44:15.477Z,1.12
2018-08-24T18:46:46.565Z,1.82
2018-08-24T18:49:19.357Z,1.40
2018-08-24T18:51:49.903Z,2.27
2018-08-24T18:54:23.792Z,2.37
2018-08-24T18:56:54.594Z,1.20
2018-08-24T18:59:27.167Z,1.77
2018-08-24T19:01:58.762Z,2.02
2018-08-24T19:04:31.631Z,1.47
2018-08-24T19:07:03.398Z,1.52
2018-08-24T19:09:56.073Z,1.70
2018-08-24T19:12:33.747Z,2.00
2018-08-24T19:15:09.607Z,2.10
2018-08-24T19:17:47.245Z,1.30
2018-08-24T19:20:40.088Z,1.57
2018-08-24T19:29:18.771Z,1.87
2018-08-24T19:31:49.651Z,1.95
2018-08-24T19:34:22.879Z,1.95
2018-08-24T19:36:58.289Z,1.95
2018-08-24T19:39:29.592Z,1.72
2018-08-24T19:42:06.212Z,1.95
2018-08-24T19:44:39.843Z,1.90
2018-08-24T19:47:14.710Z,9.00
2018-08-24T19:49:47.234Z,2.00
2018-08-24T19:52:19.546Z,1.42
2018-08-24T19:54:51.807Z,2.00
2018-08-24T19:57:27.140Z,1.90
2018-08-24T19:59:57.399Z,1.75
2018-08-24T20:02:28.588Z,1.90
2018-08-24T20:04:59.357Z,1.90
2018-08-24T20:07:36.416Z,1.12
2018-08-24T20:10:09.873Z,1.35
2018-08-24T20:12:42.128Z,1.27
2018-08-24T20:15:19.547Z,2.17
2018-08-24T20:17:52.970Z,1.98
2018-08-24T20:20:24.429Z,2.05
2018-08-24T20:22:57.424Z,1.85
2018-08-24T20:25:28.957Z,1.55
2018-08-24T20:28:01.365Z,1.98
2018-08-24T20:30:39.768Z,2.40
2018-08-24T20:33:12.976Z,2.22
2018-08-24T20:35:59.501Z,2.85
2018-08-24T20:38:34.623Z,2.08
2018-08-24T20:43:40.331Z,2.30
2018-08-24T20:46:11.779Z,1.52
2018-08-24T20:48:42.471Z,1.60
2018-08-24T20:51:16.838Z,1.42
2018-08-24T20:53:47.969Z,6.85
2018-08-24T20:56:19.670Z,1.90
2018-08-24T20:58:50.902Z,1.47
2018-08-24T21:01:22.352Z,2.90
2018-08-24T21:03:54.869Z,2.10
2018-08-24T21:06:26.353Z,1.47
2018-08-24T21:08:58.108Z,1.80
2018-08-24T21:11:28.246Z,0.68
2018-08-24T21:13:58.504Z,2.00
2018-08-24T21:16:30.190Z,2.22
2018-08-24T21:19:02.023Z,1.90
2018-08-24T21:21:32.350Z,1.72
2018-08-24T21:24:03.187Z,1.57
2018-08-24T21:26:33.792Z,1.70
2018-08-24T21:29:04.543Z,2.30
2018-08-24T21:31:36.898Z,2.15
2018-08-24T21:34:10.402Z,2.02
2018-08-24T21:36:40.915Z,2.17
2018-08-24T21:39:12.687Z,1.92
2018-08-24T21:41:44.610Z,1.82
2018-08-24T21:44:17.397Z,1.57
2018-08-24T21:46:47.475Z,2.25
2018-08-24T21:49:19.541Z,1.82
2018-08-24T21:51:50.415Z,2.17
2018-08-24T21:54:23.815Z,2.30
2018-08-24T21:57:13.754Z,1.70
2018-08-24T22:02:51.429Z,2.50
2018-08-24T22:05:22.479Z,2.40
2018-08-24T22:07:55.071Z,2.00
2018-08-24T22:10:25.731Z,7.65
2018-08-24T22:12:58.214Z,3.33
2018-08-24T22:15:31.507Z,0.93
2018-08-24T22:18:01.805Z,1.98
2018-08-24T22:20:33.346Z,2.40
2018-08-24T22:23:05.176Z,1.90
2018-08-24T22:25:35.378Z,1.90
2018-08-24T22:28:05.803Z,1.87
2018-08-24T22:30:38.194Z,1.40
2018-08-24T22:33:08.514Z,1.22
2018-08-24T22:35:40.148Z,0.60
2018-08-24T22:38:12.902Z,1.30
2018-08-24T22:40:43.277Z,1.47
2018-08-24T22:43:20.608Z,1.40
2018-08-24T22:45:53.148Z,1.47
2018-08-24T22:49:50.510Z,1.87
2018-08-24T22:52:22.248Z,1.90
2018-08-24T22:54:54.339Z,1.72
2018-08-24T22:57:24.774Z,1.80
2018-08-24T22:59:55.897Z,1.77
2018-08-24T23:02:26.113Z,2.33
2018-08-24T23:04:58.007Z,1.25
2018-08-24T23:07:29.701Z,1.75
2018-08-24T23:12:41.056Z,1.98
2018-08-24T23:15:12.501Z,1.92
2018-08-24T23:17:42.672Z,1.90
2018-08-24T23:20:14.325Z,2.62
2018-08-24T23:22:44.780Z,2.37
2018-08-24T23:25:15.896Z,2.40
2018-08-24T23:27:48.632Z,2.92
2018-08-24T23:30:19.138Z,3.00
2018-08-24T23:32:51.581Z,3.12
2018-08-24T23:35:23.580Z,3.45
2018-08-24T23:37:55.399Z,2.65
2018-08-24T23:40:26.384Z,3.60
2018-08-24T23:42:58.821Z,1.65
2018-08-24T23:45:29.509Z,3.15
2018-08-24T23:48:01.420Z,3.17
2018-08-24T23:50:33.666Z,3.30
2018-08-24T23:53:06.099Z,2.42
2018-08-24T23:55:36.819Z,3.95
2018-08-24T23:58:11.454Z,1.65
